Thorco Attraction — V2BS1 — position and weather

sailwx.info

Track history (hours):
 
Tides and Currents Weather Stations Pressure Air Temp Water Temp Dewpoint Dewpoint Depression Visibility Wind Speed Wind Dir Waves Ship Positions

Thorco Attraction

Last reported at 2015-Apr-01 09:25 UTC. Time now 2015-Apr-01 16:31 UTC.
Position N 32°33' W 013°40'.

Length 132 m; draft 5.7 m.

Type: Cargo ship. MMSI: 304908000.

Date/timePositionNaut miles runAvg speedWind from/ knotsBaromVisibWave heightAir tempDewpointWater temp
2015-Apr-01 09:25N 32°33' W 013°40'40 9.7
2015-Apr-01 05:18N 31°55' W 013°56'38 9.6
2015-Apr-01 01:19N 31°18' W 014°09'12 9.8
2015-Apr-01 00:08N 31°07' W 014°13'7 9.7
2015-Mar-31 23:23N 31°00' W 014°16'8 9.6
2015-Mar-31 22:33N 30°53' W 014°19'11 9.8
2015-Mar-31 21:28N 30°43' W 014°23'21 9.8
2015-Mar-31 19:17N 30°23' W 014°32'9 9.4
2015-Mar-31 18:22N 30°15' W 014°35'8 9.5
2015-Mar-31 17:34N 30°07' W 014°38'31 9.3
2015-Mar-31 14:14N 29°38' W 014°49'7 9.1
2015-Mar-31 13:29N 29°31' W 014°51'9 9.0
2015-Mar-31 12:30N 29°23' W 014°54'8 9.0
2015-Mar-31 11:33N 29°15' W 014°57'9 9.0
2015-Mar-31 10:33N 29°06' W 015°00'9 8.9
2015-Mar-31 09:33N 28°58' W 015°04'9 8.9
2015-Mar-31 08:33N 28°50' W 015°07'9 8.8
2015-Mar-31 07:33N 28°41' W 015°10'9 9.0
2015-Mar-31 06:33N 28°33' W 015°14'9 8.9
2015-Mar-31 05:33N 28°24' W 015°17'9 9.4
2015-Mar-31 04:33N 28°15' W 015°20'9 9.1
2015-Mar-31 03:34N 28°07' W 015°24'1 0.8
2015-Mar-31 02:25N 28°08' W 015°25'0 0.1
2015-Mar-31 01:25N 28°07' W 015°25'0 0.0
2015-Mar-31 00:25N 28°07' W 015°25'0 0.0
2015-Mar-30 23:28N 28°07' W 015°25'0 0.0
2015-Mar-30 22:28N 28°07' W 015°25'0 0.0
2015-Mar-30 21:28N 28°08' W 015°25'2 1.8
2015-Mar-30 20:32N 28°06' W 015°24'0 0.1
2015-Mar-30 19:32N 28°06' W 015°24'0 0.0
2015-Mar-30 18:32N 28°06' W 015°24'0 0.0
2015-Mar-30 17:32N 28°06' W 015°24'0 0.0
2015-Mar-30 16:32N 28°06' W 015°24'0 0.0
2015-Mar-30 15:32N 28°06' W 015°24'0 0.0
2015-Mar-30 14:23N 28°06' W 015°24'2 1.8
2015-Mar-30 13:33N 28°06' W 015°23'5 5.4
2015-Mar-30 12:33N 28°02' W 015°19'1010.4
2015-Mar-30 11:33N 27°52' W 015°17'1010.4
2015-Mar-30 10:33N 27°41' W 015°18'  
2015-Mar-25 19:17N 08°52' W 015°26'5611.8
2015-Mar-25 14:33N 08°15' W 014°44'  
Track history (hours):
 
Tides and Currents Weather Stations Pressure Air Temp Water Temp Dewpoint Dewpoint Depression Visibility Wind Speed Wind Dir Waves Ship Positions

Thorco Attraction

Last reported at 2015-Apr-01 09:25 UTC. Time now 2015-Apr-01 16:31 UTC.
Position N 32°33' W 013°40'.

Length 132 m; draft 5.7 m.

Type: Cargo ship. MMSI: 304908000.

Date/timePositionNaut miles runAvg speedWind from/ knotsBaromVisibWave heightAir tempDewpointWater temp
2015-Apr-01 09:25N 32°33' W 013°40'40 9.7
2015-Apr-01 05:18N 31°55' W 013°56'38 9.6
2015-Apr-01 01:19N 31°18' W 014°09'12 9.8
2015-Apr-01 00:08N 31°07' W 014°13'7 9.7
2015-Mar-31 23:23N 31°00' W 014°16'8 9.6
2015-Mar-31 22:33N 30°53' W 014°19'11 9.8
2015-Mar-31 21:28N 30°43' W 014°23'21 9.8
2015-Mar-31 19:17N 30°23' W 014°32'9 9.4
2015-Mar-31 18:22N 30°15' W 014°35'8 9.5
2015-Mar-31 17:34N 30°07' W 014°38'31 9.3
2015-Mar-31 14:14N 29°38' W 014°49'7 9.1
2015-Mar-31 13:29N 29°31' W 014°51'9 9.0
2015-Mar-31 12:30N 29°23' W 014°54'8 9.0
2015-Mar-31 11:33N 29°15' W 014°57'9 9.0
2015-Mar-31 10:33N 29°06' W 015°00'9 8.9
2015-Mar-31 09:33N 28°58' W 015°04'9 8.9
2015-Mar-31 08:33N 28°50' W 015°07'9 8.8
2015-Mar-31 07:33N 28°41' W 015°10'9 9.0
2015-Mar-31 06:33N 28°33' W 015°14'9 8.9
2015-Mar-31 05:33N 28°24' W 015°17'9 9.4
2015-Mar-31 04:33N 28°15' W 015°20'9 9.1
2015-Mar-31 03:34N 28°07' W 015°24'1 0.8
2015-Mar-31 02:25N 28°08' W 015°25'0 0.1
2015-Mar-31 01:25N 28°07' W 015°25'0 0.0
2015-Mar-31 00:25N 28°07' W 015°25'0 0.0
2015-Mar-30 23:28N 28°07' W 015°25'0 0.0
2015-Mar-30 22:28N 28°07' W 015°25'0 0.0
2015-Mar-30 21:28N 28°08' W 015°25'2 1.8
2015-Mar-30 20:32N 28°06' W 015°24'0 0.1
2015-Mar-30 19:32N 28°06' W 015°24'0 0.0
2015-Mar-30 18:32N 28°06' W 015°24'0 0.0
2015-Mar-30 17:32N 28°06' W 015°24'0 0.0
2015-Mar-30 16:32N 28°06' W 015°24'0 0.0
2015-Mar-30 15:32N 28°06' W 015°24'0 0.0
2015-Mar-30 14:23N 28°06' W 015°24'2 1.8
2015-Mar-30 13:33N 28°06' W 015°23'5 5.4
2015-Mar-30 12:33N 28°02' W 015°19'1010.4
2015-Mar-30 11:33N 27°52' W 015°17'1010.4
2015-Mar-30 10:33N 27°41' W 015°18'  
2015-Mar-25 19:17N 08°52' W 015°26'5611.8
2015-Mar-25 14:33N 08°15' W 014°44'  

Dump ship's entire track history